Time;durP1;ratioP1;P1;durP2;ratioP2;P2;SDS_P1;SDS_P2;PMS_P1;PMS_P2;Temp;Humidity;BMP_temperature;BMP_pressure;BME280_temperature;BME280_humidity;BME280_pressure;Samples;Min_cycle;Max_cycle;Signal;HPM_P1;HPM_P2
2021/07/30 07:40:11;;;;;;;12.68;7.60;;;14.60;87.70;;;;;;5108091;27;20809;-73
2021/07/30 07:42:40;;;;;;;11.20;7.47;;;15.30;86.20;;;;;;5107024;28;20040;-72
2021/07/30 07:45:08;;;;;;;15.23;7.60;;;15.30;86.10;;;;;;5108927;28;20040;-72
2021/07/30 07:47:36;;;;;;;9.98;6.60;;;15.50;85.90;;;;;;5105938;28;20429;-73
2021/07/30 07:50:04;;;;;;;10.00;5.80;;;15.50;85.40;;;;;;5108058;28;20040;-73
2021/07/30 07:52:35;;;;;;;10.68;5.70;;;15.60;85.10;;;;;;5106023;28;20052;-73
2021/07/30 07:55:07;;;;;;;9.40;6.15;;;15.60;84.80;;;;;;5105856;28;20044;-73
2021/07/30 07:57:35;;;;;;;9.18;6.25;;;15.70;84.50;;;;;;5106693;28;20498;-72
2021/07/30 08:00:03;;;;;;;12.23;6.00;;;15.70;84.50;;;;;;5106955;28;20043;-73
2021/07/30 08:02:38;;;;;;;7.95;5.85;;;15.70;84.30;;;;;;5105873;28;20046;-72
2021/07/30 08:05:08;;;;;;;7.15;4.90;;;15.70;83.90;;;;;;5090831;28;20048;-74
2021/07/30 08:07:36;;;;;;;9.23;6.18;;;15.70;83.70;;;;;;5106927;28;20051;-74
2021/07/30 08:10:04;;;;;;;9.50;5.43;;;15.70;83.70;;;;;;5106668;28;20039;-74
2021/07/30 08:12:33;;;;;;;8.07;5.68;;;15.70;83.60;;;;;;5090551;28;20051;-72
2021/07/30 08:15:02;;;;;;;8.20;5.15;;;15.80;83.60;;;;;;5107916;28;20493;-74
2021/07/30 08:17:31;;;;;;;8.13;5.38;;;15.80;83.40;;;;;;5107230;28;20039;-72
2021/07/30 08:19:59;;;;;;;7.53;4.93;;;15.90;83.30;;;;;;5106858;28;20043;-74
2021/07/30 08:22:26;;;;;;;7.20;4.75;;;16.00;83.00;;;;;;5106876;28;20048;-74
2021/07/30 08:24:54;;;;;;;10.18;4.63;;;16.00;82.70;;;;;;5106362;28;20507;-74
2021/07/30 08:27:21;;;;;;;11.43;4.90;;;15.90;82.60;;;;;;5106214;28;20067;-74
2021/07/30 08:29:49;;;;;;;8.02;5.43;;;15.90;82.50;;;;;;5104379;28;20047;-74
2021/07/30 08:32:17;;;;;;;6.60;4.72;;;15.80;82.50;;;;;;5105036;28;20044;-73
2021/07/30 08:34:45;;;;;;;9.15;4.47;;;15.80;82.40;;;;;;5104679;28;20051;-74
2021/07/30 08:37:12;;;;;;;9.30;4.32;;;15.80;82.20;;;;;;5104981;28;20070;-74
2021/07/30 08:39:40;;;;;;;10.15;4.45;;;15.80;82.00;;;;;;5098975;28;20059;-74
2021/07/30 08:42:08;;;;;;;6.05;4.40;;;15.90;81.80;;;;;;5095215;28;20048;-74
2021/07/30 08:44:35;;;;;;;5.05;3.90;;;16.00;81.70;;;;;;5093216;28;20040;-74
2021/07/30 08:47:03;;;;;;;7.35;4.10;;;16.10;81.50;;;;;;5090890;28;20032;-74
2021/07/30 08:49:34;;;;;;;5.53;3.47;;;16.10;81.40;;;;;;5090409;28;20040;-73
2021/07/30 08:52:10;;;;;;;6.65;3.42;;;16.10;81.20;;;;;;5092642;28;20048;-74
2021/07/30 08:54:39;;;;;;;6.15;3.35;;;16.30;80.90;;;;;;5091394;28;20059;-73
2021/07/30 08:57:11;;;;;;;6.30;3.50;;;16.30;80.60;;;;;;5091719;28;20040;-74
2021/07/30 08:59:40;;;;;;;7.38;4.00;;;16.40;80.30;;;;;;5092451;28;20048;-73
2021/07/30 09:02:09;;;;;;;6.28;3.20;;;16.50;80.20;;;;;;5092871;28;20495;-73
2021/07/30 09:04:38;;;;;;;4.90;3.08;;;16.70;80.00;;;;;;5074339;28;20051;-73
2021/07/30 09:07:06;;;;;;;6.65;2.53;;;16.80;79.50;;;;;;5093649;28;20055;-75
2021/07/30 09:09:35;;;;;;;5.90;2.63;;;16.90;79.00;;;;;;5092175;28;20063;-74
2021/07/30 09:12:05;;;;;;;6.45;2.53;;;16.90;78.60;;;;;;5077388;28;20478;-74
2021/07/30 09:14:44;;;;;;;5.47;2.40;;;16.90;78.40;;;;;;5094013;28;20047;-74
2021/07/30 09:17:12;;;;;;;6.45;3.17;;;16.80;77.90;;;;;;5093235;28;20055;-74
2021/07/30 09:20:00;;;;;;;4.85;2.60;;;16.70;77.90;;;;;;5086172;28;20031;-75
2021/07/30 09:22:28;;;;;;;5.30;2.75;;;16.50;78.00;;;;;;5091977;28;20055;-74
2021/07/30 09:25:00;;;;;;;5.53;3.22;;;16.30;78.40;;;;;;5089528;28;20040;-74
2021/07/30 09:27:33;;;;;;;5.63;3.25;;;16.30;78.60;;;;;;5093898;28;20603;-75
2021/07/30 09:30:12;;;;;;;;;;;16.20;78.80;;;;;;5093485;28;20409;-74
2021/07/30 09:32:39;;;;;;;5.25;3.40;;;16.00;78.80;;;;;;5090021;28;19927;-74
2021/07/30 09:35:08;;;;;;;8.73;3.67;;;16.00;78.90;;;;;;5093280;28;20048;-74
2021/07/30 09:37:35;;;;;;;6.13;3.78;;;15.90;79.10;;;;;;5074165;28;20111;-74
2021/07/30 09:40:04;;;;;;;8.00;3.72;;;15.90;79.20;;;;;;5090170;28;20055;-74
2021/07/30 09:42:34;;;;;;;4.93;3.92;;;15.80;79.40;;;;;;5089733;28;20048;-74
2021/07/30 09:45:12;;;;;;;11.18;4.18;;;15.80;79.50;;;;;;5091865;28;20043;-74
2021/07/30 09:47:48;;;;;;;5.13;3.90;;;15.80;79.60;;;;;;5091868;28;20052;-74
2021/07/30 09:50:16;;;;;;;8.63;4.38;;;15.80;79.80;;;;;;5089545;28;20051;-74
2021/07/30 09:52:52;;;;;;;10.10;4.18;;;15.80;79.60;;;;;;5091023;28;20051;-74
2021/07/30 09:55:21;;;;;;;5.72;4.00;;;15.80;79.60;;;;;;5092879;28;20036;-74
2021/07/30 09:57:51;;;;;;;11.15;4.68;;;15.80;79.50;;;;;;5091415;28;20055;-74
2021/07/30 10:00:20;;;;;;;5.75;3.88;;;15.80;79.60;;;;;;5088269;28;20044;-74
2021/07/30 10:02:48;;;;;;;7.60;4.55;;;15.80;79.50;;;;;;5092871;28;20051;-81
2021/07/30 10:05:20;;;;;;;8.07;4.95;;;15.80;79.40;;;;;;5092404;28;20047;-74
2021/07/30 10:07:48;;;;;;;9.60;4.78;;;15.80;79.50;;;;;;5091071;28;20040;-74
2021/07/30 10:12:52;;;;;;;7.68;4.60;;;15.90;79.70;;;;;;5089720;28;20044;-74
2021/07/30 10:15:20;;;;;;;11.63;4.88;;;16.00;79.70;;;;;;5085675;28;20043;-74
2021/07/30 10:17:58;;;;;;;12.65;4.68;;;16.00;79.60;;;;;;5091853;28;20044;-74
2021/07/30 10:20:27;;;;;;;8.23;4.63;;;16.10;79.60;;;;;;5091211;28;20221;-74
2021/07/30 10:23:06;;;;;;;10.32;5.10;;;16.10;79.40;;;;;;5092144;28;20056;-74
2021/07/30 10:25:40;;;;;;;10.23;5.07;;;16.10;79.10;;;;;;5089738;28;20520;-74
2021/07/30 10:28:11;;;;;;;11.23;5.30;;;16.10;79.10;;;;;;5088983;28;20036;-74
2021/07/30 10:30:56;;;;;;;8.98;5.20;;;16.00;79.20;;;;;;5089651;28;20047;-74
2021/07/30 10:33:31;;;;;;;14.15;5.75;;;16.00;79.20;;;;;;5078587;28;20040;-74
2021/07/30 10:36:05;;;;;;;7.65;5.85;;;15.90;79.30;;;;;;5091212;28;20051;-74
2021/07/30 10:38:34;;;;;;;9.18;6.18;;;16.00;79.40;;;;;;5086740;28;20060;-74
2021/07/30 10:41:07;;;;;;;7.53;5.43;;;15.90;79.40;;;;;;5090261;28;20048;-74
2021/07/30 10:44:00;;;;;;;10.20;5.53;;;15.90;79.60;;;;;;5090123;28;20048;-74
2021/07/30 10:46:28;;;;;;;7.55;5.35;;;15.80;79.90;;;;;;5088105;28;20161;-74
2021/07/30 10:48:55;;;;;;;6.78;5.15;;;15.80;80.10;;;;;;5091970;28;20044;-74
2021/07/30 10:51:27;;;;;;;8.95;5.72;;;15.80;80.40;;;;;;5092243;28;20481;-74
2021/07/30 10:53:58;;;;;;;10.82;5.60;;;15.80;80.80;;;;;;5087990;28;20433;-74
2021/07/30 10:56:31;;;;;;;7.53;5.70;;;15.70;81.00;;;;;;5090102;28;20036;-74
2021/07/30 10:58:59;;;;;;;7.10;5.32;;;15.70;81.10;;;;;;5091463;28;20047;-74
2021/07/30 11:01:28;;;;;;;8.07;5.78;;;15.70;81.30;;;;;;5084967;28;20044;-74
2021/07/30 11:03:58;;;;;;;5.45;4.95;;;15.70;81.50;;;;;;5088719;28;20074;-74
2021/07/30 11:06:30;;;;;;;9.60;5.88;;;15.60;81.60;;;;;;5091548;28;20040;-74
2021/07/30 11:09:04;;;;;;;9.48;5.80;;;15.60;81.60;;;;;;5091455;28;20039;-74
2021/07/30 11:11:35;;;;;;;10.57;5.10;;;15.50;81.60;;;;;;5090742;28;20398;-74
2021/07/30 11:14:14;;;;;;;10.10;5.75;;;15.50;81.70;;;;;;5088413;28;20486;-75
2021/07/30 11:16:47;;;;;;;6.72;5.15;;;15.50;81.60;;;;;;5092217;28;20051;-74
2021/07/30 11:19:17;;;;;;;8.20;5.15;;;15.50;81.60;;;;;;5092094;28;20079;-74
2021/07/30 11:21:45;;;;;;;6.32;4.80;;;15.50;81.40;;;;;;5091765;28;20051;-74
2021/07/30 11:24:13;;;;;;;7.18;4.95;;;15.50;81.30;;;;;;5091689;28;20044;-74
2021/07/30 11:26:41;;;;;;;7.75;4.72;;;15.50;81.30;;;;;;5091691;28;20055;-74
2021/07/30 11:29:28;;;;;;;7.70;4.75;;;15.50;81.30;;;;;;5091561;28;20066;-74
2021/07/30 11:32:04;;;;;;;5.65;4.20;;;15.50;81.30;;;;;;5092018;28;20070;-74
2021/07/30 11:34:41;;;;;;;9.65;4.35;;;15.50;81.50;;;;;;5091695;28;20044;-74
2021/07/30 11:37:11;;;;;;;7.65;4.05;;;15.50;81.70;;;;;;5092665;28;20056;-73
2021/07/30 11:39:44;;;;;;;5.85;3.65;;;15.60;81.90;;;;;;5091642;28;20055;-73
2021/07/30 11:42:23;;;;;;;4.63;3.60;;;15.60;82.00;;;;;;5092336;28;20044;-73
2021/07/30 11:44:52;;;;;;;5.57;3.67;;;15.60;82.30;;;;;;5086651;28;20055;-73
2021/07/30 11:47:21;;;;;;;5.80;3.75;;;15.60;82.30;;;;;;5089307;28;20047;-73
2021/07/30 11:50:10;;;;;;;5.03;3.00;;;15.60;82.60;;;;;;5084161;28;20051;-72
2021/07/30 11:52:39;;;;;;;5.65;3.58;;;15.50;82.60;;;;;;5085338;28;20059;-72
2021/07/30 11:55:21;;;;;;;3.95;3.40;;;15.50;82.60;;;;;;5085577;28;20056;-72
2021/07/30 11:57:50;;;;;;;4.63;2.70;;;15.50;83.00;;;;;;5085709;28;20412;-71
2021/07/30 12:00:28;;;;;;;3.45;2.78;;;15.50;83.00;;;;;;5087339;28;20040;-72
2021/07/30 12:02:57;;;;;;;3.55;3.10;;;15.50;83.00;;;;;;5087120;28;20402;-71
2021/07/30 12:05:34;;;;;;;3.55;2.70;;;15.50;83.00;;;;;;5087778;28;20052;-71
2021/07/30 12:08:04;;;;;;;3.13;2.88;;;15.60;82.80;;;;;;5087045;28;20055;-71
2021/07/30 12:10:32;;;;;;;4.55;3.00;;;15.70;82.70;;;;;;5078187;28;20052;-71
2021/07/30 12:13:05;;;;;;;3.42;3.10;;;15.70;82.70;;;;;;5088060;28;20048;-72
2021/07/30 12:15:33;;;;;;;3.70;3.40;;;15.80;82.60;;;;;;5091331;28;20052;-72
2021/07/30 12:18:06;;;;;;;4.13;3.30;;;15.90;82.30;;;;;;5095267;28;20059;-73
2021/07/30 12:20:38;;;;;;;4.53;3.20;;;16.00;82.30;;;;;;5093710;28;20047;-72
2021/07/30 12:23:11;;;;;;;3.70;2.80;;;16.10;82.10;;;;;;5093936;28;20044;-73
2021/07/30 12:25:53;;;;;;;3.67;2.65;;;16.20;81.80;;;;;;5094584;28;20055;-72
2021/07/30 12:28:22;;;;;;;7.28;2.63;;;16.20;81.70;;;;;;5076866;28;20410;-74
2021/07/30 12:30:52;;;;;;;2.85;2.60;;;16.30;81.20;;;;;;5093051;28;20052;-73
2021/07/30 12:33:24;;;;;;;3.83;2.50;;;16.30;80.70;;;;;;5094800;28;20047;-73
2021/07/30 12:36:14;;;;;;;2.60;2.20;;;16.40;80.60;;;;;;5094267;28;20051;-73
2021/07/30 12:39:01;;;;;;;3.20;1.58;;;16.50;80.50;;;;;;5093541;28;20055;-72
2021/07/30 12:41:34;;;;;;;1.75;1.50;;;16.60;79.80;;;;;;5088772;28;20063;-73
2021/07/30 12:44:12;;;;;;;2.00;1.60;;;16.70;79.20;;;;;;5092199;28;20043;-73
2021/07/30 12:46:46;;;;;;;1.50;1.40;;;16.70;79.10;;;;;;5094564;28;20054;-74
2021/07/30 12:49:26;;;;;;;2.13;2.03;;;16.70;79.10;;;;;;5094607;28;20055;-73
2021/07/30 12:51:55;;;;;;;1.58;1.48;;;16.80;78.90;;;;;;5094563;28;20044;-73
2021/07/30 12:54:35;;;;;;;3.92;1.70;;;16.70;78.80;;;;;;5094402;28;20401;-73
2021/07/30 12:57:07;;;;;;;3.00;1.95;;;16.80;78.70;;;;;;5072252;28;20052;-72
2021/07/30 12:59:58;;;;;;;4.13;1.90;;;16.70;78.60;;;;;;5070713;28;20484;-73
2021/07/30 13:02:45;;;;;;;1.80;1.70;;;16.50;78.70;;;;;;5071003;28;20040;-72
2021/07/30 13:05:17;;;;;;;2.83;2.03;;;16.50;78.80;;;;;;5072138;28;20063;-73
2021/07/30 13:07:44;;;;;;;1.83;1.70;;;16.50;78.90;;;;;;5071257;28;20049;-73
2021/07/30 13:10:12;;;;;;;2.40;1.80;;;16.50;78.90;;;;;;5071189;28;20510;-73
2021/07/30 13:12:40;;;;;;;3.22;1.88;;;16.50;79.00;;;;;;5073296;28;20042;-73
2021/07/30 13:15:08;;;;;;;18.33;3.33;;;16.50;78.90;;;;;;5074048;28;20053;-73
2021/07/30 13:17:36;;;;;;;16.65;2.70;;;16.60;78.70;;;;;;5076624;28;20056;-73
2021/07/30 13:20:05;;;;;;;4.50;1.83;;;16.70;78.30;;;;;;5092593;28;20044;-73
2021/07/30 13:22:32;;;;;;;2.38;1.85;;;16.80;78.00;;;;;;5093769;28;20058;-73
2021/07/30 13:25:03;;;;;;;2.33;2.13;;;17.00;77.60;;;;;;5092551;28;20406;-72
2021/07/30 13:27:31;;;;;;;3.08;1.90;;;17.20;77.20;;;;;;5093325;28;20364;-72
2021/07/30 13:29:59;;;;;;;3.15;1.77;;;17.40;76.70;;;;;;5093702;28;20055;-73
2021/07/30 13:32:26;;;;;;;3.10;1.42;;;17.60;76.30;;;;;;5093433;28;20382;-73
2021/07/30 13:34:54;;;;;;;1.90;1.70;;;17.60;75.40;;;;;;5093730;28;20055;-73
2021/07/30 13:37:28;;;;;;;2.20;1.60;;;17.70;74.80;;;;;;5094383;28;20380;-73
2021/07/30 13:39:56;;;;;;;2.85;1.75;;;17.70;74.70;;;;;;5092552;28;20067;-73
2021/07/30 13:42:24;;;;;;;2.22;1.95;;;17.80;74.30;;;;;;5091521;28;20075;-73
2021/07/30 13:44:53;;;;;;;2.60;2.40;;;17.70;74.20;;;;;;5092193;28;20047;-73
2021/07/30 13:47:22;;;;;;;3.28;2.17;;;17.70;74.00;;;;;;5092601;28;20060;-75
2021/07/30 13:49:50;;;;;;;2.05;1.95;;;17.70;73.90;;;;;;5093692;28;20103;-75
2021/07/30 13:52:17;;;;;;;2.33;2.15;;;17.60;72.80;;;;;;5091926;28;20099;-77
2021/07/30 13:54:45;;;;;;;3.30;2.08;;;17.50;72.70;;;;;;5085953;28;20363;-73
2021/07/30 13:57:13;;;;;;;3.53;1.95;;;17.60;72.90;;;;;;5099131;28;20040;-73
2021/07/30 13:59:40;;;;;;;4.07;2.17;;;17.90;72.40;;;;;;5081079;28;20040;-73
2021/07/30 14:02:08;;;;;;;3.22;2.20;;;18.30;71.40;;;;;;5087332;28;20040;-73
2021/07/30 14:04:36;;;;;;;3.13;2.50;;;19.30;70.80;;;;;;5084511;28;20059;-73
2021/07/30 14:07:05;;;;;;;2.50;2.30;;;20.40;66.90;;;;;;5091159;28;20047;-73
2021/07/30 14:09:37;;;;;;;2.60;1.95;;;21.10;64.80;;;;;;5091851;28;20048;-79
2021/07/30 14:12:07;;;;;;;2.78;1.83;;;21.20;63.70;;;;;;5091253;28;20056;-74
2021/07/30 14:14:41;;;;;;;2.97;1.80;;;20.90;62.10;;;;;;5091343;28;20048;-74
2021/07/30 14:17:08;;;;;;;5.85;2.17;;;20.30;63.00;;;;;;5091033;28;20048;-74
2021/07/30 14:19:37;;;;;;;2.45;2.10;;;20.00;63.70;;;;;;5084786;28;20044;-74
2021/07/30 14:22:06;;;;;;;3.90;2.00;;;19.90;65.00;;;;;;5088892;28;20048;-74
2021/07/30 14:24:35;;;;;;;2.33;1.95;;;20.00;65.60;;;;;;5087887;28;20063;-75
2021/07/30 14:27:03;;;;;;;1.67;1.40;;;19.80;65.60;;;;;;5087086;28;20032;-74
2021/07/30 14:29:31;;;;;;;3.95;1.75;;;19.60;65.70;;;;;;5086815;28;20055;-75
2021/07/30 14:31:59;;;;;;;6.28;1.80;;;19.30;65.90;;;;;;5088133;28;20059;-74
2021/07/30 14:34:26;;;;;;;3.05;2.25;;;18.90;67.10;;;;;;5087322;28;20059;-75
2021/07/30 14:36:54;;;;;;;4.50;2.63;;;18.70;68.20;;;;;;5085356;28;20326;-75
2021/07/30 14:39:25;;;;;;;3.92;2.72;;;18.40;69.30;;;;;;5088626;28;20399;-74
2021/07/30 14:41:53;;;;;;;4.82;3.33;;;18.20;70.10;;;;;;5086623;28;20201;-75
2021/07/30 14:44:25;;;;;;;3.38;1.60;;;18.00;71.10;;;;;;5089319;28;20032;-75
2021/07/30 14:46:54;;;;;;;4.63;2.05;;;18.30;70.80;;;;;;5085457;28;20297;-75
2021/07/30 14:49:24;;;;;;;4.22;2.15;;;18.30;70.30;;;;;;5086295;28;20067;-75
2021/07/30 14:51:54;;;;;;;2.22;2.00;;;18.30;70.30;;;;;;5089654;28;20036;-75
2021/07/30 14:54:22;;;;;;;2.90;2.00;;;18.30;70.30;;;;;;5089687;28;20059;-75
2021/07/30 14:56:54;;;;;;;4.35;2.33;;;18.20;70.50;;;;;;5087800;28;20055;-75
2021/07/30 14:59:21;;;;;;;2.28;2.05;;;17.90;70.90;;;;;;5089758;28;20048;-75
2021/07/30 15:01:49;;;;;;;3.50;2.55;;;17.70;71.70;;;;;;5090123;28;20402;-75
2021/07/30 15:04:17;;;;;;;3.13;2.40;;;17.50;72.40;;;;;;5087934;28;20049;-75
2021/07/30 15:06:48;;;;;;;4.05;2.60;;;17.30;72.60;;;;;;5084789;28;20115;-75
2021/07/30 15:09:16;;;;;;;2.90;2.47;;;17.20;73.00;;;;;;5086736;28;20056;-75
2021/07/30 15:11:44;;;;;;;3.75;2.50;;;17.00;73.40;;;;;;5089643;28;20390;-75
2021/07/30 15:14:13;;;;;;;2.55;2.33;;;16.90;73.30;;;;;;5083982;28;20049;-75
2021/07/30 15:16:42;;;;;;;4.13;2.60;;;16.70;73.90;;;;;;5085255;28;20268;-75
2021/07/30 15:19:14;;;;;;;3.63;3.30;;;16.50;74.50;;;;;;5088719;28;20062;-75
2021/07/30 15:21:42;;;;;;;4.60;3.20;;;16.40;75.00;;;;;;5086889;28;20040;-75
2021/07/30 15:24:14;;;;;;;3.97;3.58;;;16.30;75.80;;;;;;5082835;28;20044;-75
2021/07/30 15:26:42;;;;;;;5.90;2.85;;;16.20;76.80;;;;;;5082675;28;20059;-75
2021/07/30 15:29:10;;;;;;;6.72;4.45;;;16.10;77.40;;;;;;5088361;28;20043;-75
2021/07/30 15:31:39;;;;;;;10.57;3.90;;;16.00;77.70;;;;;;5084525;28;20056;-75
2021/07/30 15:34:06;;;;;;;7.28;4.38;;;15.90;77.80;;;;;;5108172;28;20051;-76
2021/07/30 15:36:36;;;;;;;11.00;4.38;;;15.90;78.30;;;;;;5077177;28;20047;-76
2021/07/30 15:39:05;;;;;;;5.93;3.67;;;15.80;78.30;;;;;;5087467;28;20047;-76
2021/07/30 15:41:34;;;;;;;9.90;4.32;;;15.80;78.30;;;;;;5084159;28;20051;-76
2021/07/30 15:44:06;;;;;;;10.82;4.18;;;15.80;78.10;;;;;;5087071;28;20067;-76
2021/07/30 15:46:34;;;;;;;13.90;4.40;;;15.80;78.30;;;;;;5086209;28;20051;-75
2021/07/30 15:49:02;;;;;;;6.65;4.25;;;15.80;78.40;;;;;;5089351;28;20052;-76
2021/07/30 15:51:30;;;;;;;6.90;3.78;;;15.80;78.40;;;;;;5091315;28;20044;-76
2021/07/30 15:53:57;;;;;;;8.27;4.10;;;15.80;78.50;;;;;;5091931;28;20513;-76
2021/07/30 15:56:25;;;;;;;6.30;4.25;;;15.80;78.60;;;;;;5089325;28;20040;-76
2021/07/30 15:58:53;;;;;;;5.15;4.20;;;15.70;79.50;;;;;;5091948;28;20059;-75
2021/07/30 16:01:21;;;;;;;5.28;4.15;;;15.70;79.60;;;;;;5088182;28;20055;-75
2021/07/30 16:03:49;;;;;;;4.63;4.13;;;15.70;80.10;;;;;;5092719;28;20485;-75
2021/07/30 16:06:17;;;;;;;7.18;4.63;;;15.60;80.50;;;;;;5092549;28;20065;-75
2021/07/30 16:08:44;;;;;;;4.53;4.13;;;15.60;80.70;;;;;;5092707;28;20406;-76
2021/07/30 16:11:17;;;;;;;5.32;4.80;;;15.50;81.10;;;;;;5092138;28;20048;-76
2021/07/30 16:13:46;;;;;;;4.50;4.10;;;15.30;81.50;;;;;;5092436;28;20048;-76
2021/07/30 16:16:14;;;;;;;3.80;3.50;;;15.30;81.20;;;;;;5091835;28;20051;-76
2021/07/30 16:18:44;;;;;;;6.88;3.20;;;15.30;81.20;;;;;;5092255;28;20165;-76
2021/07/30 16:21:14;;;;;;;8.98;6.00;;;15.30;81.30;;;;;;5093278;28;20044;-77
2021/07/30 16:23:44;;;;;;;4.57;3.28;;;15.30;80.80;;;;;;5059391;28;20052;-76
2021/07/30 16:26:16;;;;;;;4.47;3.47;;;15.30;80.70;;;;;;5073438;28;20422;-76
2021/07/30 16:28:49;;;;;;;6.10;4.00;;;15.30;80.30;;;;;;5074022;28;20044;-76
2021/07/30 16:31:17;;;;;;;5.70;4.15;;;15.30;80.20;;;;;;5076097;28;20059;-76
2021/07/30 16:33:45;;;;;;;4.53;4.10;;;15.30;80.40;;;;;;5093741;28;20052;-76
2021/07/30 16:36:14;;;;;;;4.95;3.28;;;15.30;80.70;;;;;;5093951;28;20051;-76
2021/07/30 16:38:42;;;;;;;3.90;3.13;;;15.20;81.40;;;;;;5073283;28;20052;-76
2021/07/30 16:41:19;;;;;;;4.97;4.45;;;15.10;81.90;;;;;;5085907;28;20402;-76
2021/07/30 16:43:48;;;;;;;5.88;4.75;;;14.90;82.70;;;;;;5088170;28;20422;-75
2021/07/30 16:46:17;;;;;;;5.72;4.40;;;14.80;83.40;;;;;;5087066;28;20235;-75
2021/07/30 16:48:45;;;;;;;7.22;5.03;;;14.70;84.00;;;;;;5092400;28;20402;-76
2021/07/30 16:51:16;;;;;;;7.82;5.90;;;14.60;84.50;;;;;;5090567;28;20047;-76
2021/07/30 16:53:44;;;;;;;7.47;5.38;;;14.60;85.00;;;;;;5089197;28;20048;-76
2021/07/30 16:56:13;;;;;;;9.63;4.75;;;14.60;85.40;;;;;;5086227;28;20183;-76
2021/07/30 16:58:42;;;;;;;4.80;4.22;;;14.60;85.80;;;;;;5090024;28;20478;-76
2021/07/30 17:01:12;;;;;;;6.03;3.90;;;14.60;86.00;;;;;;5074129;28;20410;-75
2021/07/30 17:03:44;;;;;;;9.35;3.88;;;14.50;86.20;;;;;;5082404;28;20498;-76
2021/07/30 17:06:18;;;;;;;8.63;4.32;;;14.50;86.40;;;;;;5075172;28;20494;-75
2021/07/30 17:08:46;;;;;;;6.65;4.63;;;14.50;86.30;;;;;;5082756;28;20052;-76
2021/07/30 17:11:14;;;;;;;6.00;4.75;;;14.50;86.30;;;;;;5074263;28;20036;-76
2021/07/30 17:13:42;;;;;;;6.28;4.22;;;14.50;86.50;;;;;;5087162;28;20062;-77
2021/07/30 17:16:12;;;;;;;4.53;4.13;;;14.60;86.50;;;;;;5085048;28;20044;-76
2021/07/30 17:18:40;;;;;;;4.05;3.63;;;14.50;86.60;;;;;;5078436;28;20406;-80
2021/07/30 17:21:08;;;;;;;4.32;3.92;;;14.60;86.60;;;;;;5088534;28;20048;-78
2021/07/30 17:23:36;;;;;;;5.40;2.53;;;14.50;86.60;;;;;;5073731;28;20045;-77
2021/07/30 17:26:04;;;;;;;5.10;4.15;;;14.60;86.40;;;;;;5087459;28;20040;-76
2021/07/30 17:28:32;;;;;;;4.47;4.05;;;14.60;86.40;;;;;;5088375;28;20054;-76
2021/07/30 17:31:00;;;;;;;4.50;3.90;;;14.60;86.50;;;;;;5087396;28;20048;-76
2021/07/30 17:33:29;;;;;;;4.15;3.75;;;14.60;86.40;;;;;;5090712;28;20395;-76
2021/07/30 17:35:58;;;;;;;5.53;4.75;;;14.60;86.50;;;;;;5090814;28;20036;-76
2021/07/30 17:38:28;;;;;;;7.25;4.60;;;14.60;86.60;;;;;;5073775;28;20056;-76
2021/07/30 17:40:56;;;;;;;8.35;4.15;;;14.60;86.50;;;;;;5090309;28;20517;-76
2021/07/30 17:43:24;;;;;;;3.40;3.10;;;14.60;86.60;;;;;;5091741;28;20044;-76
2021/07/30 17:45:52;;;;;;;7.50;3.15;;;14.70;86.20;;;;;;5086225;28;20060;-75
2021/07/30 17:48:20;;;;;;;3.83;3.17;;;14.60;86.00;;;;;;5100194;28;20043;-75
2021/07/30 17:50:48;;;;;;;3.75;2.90;;;14.50;86.20;;;;;;5094125;28;20044;-74
2021/07/30 17:53:15;;;;;;;2.58;2.35;;;14.50;86.50;;;;;;5086682;28;20060;-74
2021/07/30 17:55:43;;;;;;;3.47;2.40;;;14.30;86.60;;;;;;5074241;28;20256;-75
2021/07/30 17:58:10;;;;;;;2.50;2.30;;;14.30;86.80;;;;;;5071282;28;20411;-74
2021/07/30 18:00:38;;;;;;;3.15;2.72;;;14.30;87.00;;;;;;5072359;28;20056;-74
2021/07/30 18:03:06;;;;;;;5.63;2.42;;;14.30;87.00;;;;;;5069786;28;20064;-75
2021/07/30 18:05:38;;;;;;;2.45;2.08;;;14.30;87.00;;;;;;5073468;28;20036;-74
2021/07/30 18:08:06;;;;;;;5.50;3.30;;;14.30;87.00;;;;;;5083928;28;20055;-73
2021/07/30 18:10:34;;;;;;;6.63;3.45;;;14.30;87.00;;;;;;5075667;28;20071;-73
2021/07/30 18:13:02;;;;;;;4.68;3.30;;;14.40;87.00;;;;;;5070483;28;20049;-73
2021/07/30 18:15:30;;;;;;;5.80;2.78;;;14.40;87.10;;;;;;5071252;28;20044;-74
2021/07/30 18:17:57;;;;;;;3.88;2.80;;;14.40;87.40;;;;;;5071254;28;20061;-73
2021/07/30 18:20:25;;;;;;;2.88;2.65;;;14.40;87.60;;;;;;5071729;28;20056;-72
2021/07/30 18:22:52;;;;;;;5.22;3.05;;;14.30;87.70;;;;;;5088242;28;20490;-73
2021/07/30 18:25:20;;;;;;;2.72;2.53;;;14.30;88.00;;;;;;5090315;28;20477;-72
2021/07/30 18:27:48;;;;;;;6.43;3.30;;;14.30;88.10;;;;;;5090611;28;20051;-74
2021/07/30 18:30:15;;;;;;;3.85;2.60;;;14.20;88.30;;;;;;5081335;28;20048;-73
2021/07/30 18:32:43;;;;;;;3.78;3.05;;;14.20;88.60;;;;;;5079296;28;20530;-72
2021/07/30 18:35:11;;;;;;;2.72;2.30;;;14.20;88.90;;;;;;5077000;28;20052;-71
2021/07/30 18:37:39;;;;;;;2.80;2.28;;;14.10;89.10;;;;;;5093172;28;20044;-72
2021/07/30 18:40:10;;;;;;;2.55;2.05;;;14.00;89.00;;;;;;5082831;28;20052;-72
2021/07/30 18:42:37;;;;;;;2.38;1.75;;;14.00;88.90;;;;;;5080890;28;20053;-72
2021/07/30 18:45:05;;;;;;;1.90;1.80;;;13.90;89.00;;;;;;5077158;28;20471;-72
2021/07/30 18:47:33;;;;;;;2.17;1.80;;;13.80;89.20;;;;;;5088548;28;20051;-72
2021/07/30 18:50:02;;;;;;;4.50;2.00;;;13.80;89.50;;;;;;5091000;28;20040;-72
2021/07/30 18:52:30;;;;;;;1.70;1.60;;;13.80;89.60;;;;;;5089251;28;20040;-72
2021/07/30 18:54:57;;;;;;;3.63;2.00;;;13.80;89.60;;;;;;5090038;28;20051;-73
2021/07/30 18:57:25;;;;;;;1.92;1.58;;;13.80;89.70;;;;;;5085127;28;20044;-73
2021/07/30 18:59:53;;;;;;;3.00;2.00;;;13.70;89.90;;;;;;5075882;28;20044;-73
2021/07/30 19:02:22;;;;;;;3.40;2.33;;;13.70;89.90;;;;;;5085240;28;20453;-73
2021/07/30 19:04:50;;;;;;;2.45;2.25;;;13.60;90.00;;;;;;5086732;28;20059;-73
2021/07/30 19:07:18;;;;;;;3.60;2.42;;;13.60;90.10;;;;;;5085280;28;20055;-72
2021/07/30 19:09:46;;;;;;;2.20;2.00;;;13.60;90.20;;;;;;5069770;28;20063;-73
2021/07/30 19:12:15;;;;;;;2.55;2.25;;;13.70;90.10;;;;;;5075373;28;20055;-74
2021/07/30 19:14:47;;;;;;;2.80;2.03;;;13.70;90.00;;;;;;5074594;28;20406;-73
2021/07/30 19:17:15;;;;;;;3.72;2.38;;;13.70;89.90;;;;;;5089087;28;20039;-73
2021/07/30 19:19:43;;;;;;;2.25;1.90;;;13.70;89.80;;;;;;5090662;28;20044;-74
2021/07/30 19:22:11;;;;;;;1.83;1.70;;;13.70;89.80;;;;;;5088612;28;20036;-74
2021/07/30 19:24:39;;;;;;;2.38;2.00;;;13.70;89.70;;;;;;5087030;28;20048;-74
2021/07/30 19:27:07;;;;;;;3.55;2.22;;;13.80;89.60;;;;;;5088762;28;20368;-73
2021/07/30 19:29:37;;;;;;;2.33;2.13;;;13.80;89.60;;;;;;5086097;28;20036;-73
2021/07/30 19:32:06;;;;;;;5.43;2.30;;;13.80;89.50;;;;;;5078934;28;20063;-74
2021/07/30 19:34:34;;;;;;;3.45;2.10;;;13.80;89.50;;;;;;5077101;28;20447;-74
2021/07/30 19:37:01;;;;;;;2.20;2.00;;;13.80;89.40;;;;;;5059923;28;20044;-74
2021/07/30 19:39:29;;;;;;;4.88;2.35;;;13.80;89.50;;;;;;5084371;28;20078;-75
2021/07/30 19:41:57;;;;;;;6.50;2.30;;;13.80;89.40;;;;;;5067589;28;20041;-74
2021/07/30 19:44:25;;;;;;;2.25;2.05;;;13.80;89.40;;;;;;5079267;28;20456;-74
2021/07/30 19:46:53;;;;;;;4.00;2.22;;;13.80;89.40;;;;;;5073772;28;20048;-73
2021/07/30 19:49:20;;;;;;;2.50;2.30;;;13.80;89.40;;;;;;5089431;28;20201;-74
2021/07/30 19:51:49;;;;;;;3.03;2.63;;;13.80;89.50;;;;;;5079291;28;20053;-74
2021/07/30 19:54:17;;;;;;;6.85;3.13;;;13.80;89.50;;;;;;5070717;28;20055;-74
2021/07/30 19:56:45;;;;;;;3.75;3.45;;;13.90;89.50;;;;;;5088873;28;20051;-74
2021/07/30 19:59:13;;;;;;;5.38;3.30;;;13.90;89.80;;;;;;5091004;28;20049;-74
2021/07/30 20:01:41;;;;;;;6.78;3.97;;;13.80;89.80;;;;;;5084532;28;20051;-74
2021/07/30 20:04:09;;;;;;;5.57;4.30;;;13.80;90.00;;;;;;5080581;28;20053;-75
2021/07/30 20:06:37;;;;;;;8.40;5.30;;;13.90;90.10;;;;;;5084142;28;20043;-74
2021/07/30 20:09:05;;;;;;;9.13;6.53;;;13.80;90.10;;;;;;5082225;28;20064;-75
2021/07/30 20:11:33;;;;;;;7.13;6.43;;;13.80;90.40;;;;;;5081649;28;20048;-73
2021/07/30 20:14:01;;;;;;;12.07;7.47;;;13.90;90.30;;;;;;5086265;28;20052;-73
2021/07/30 20:16:29;;;;;;;11.43;7.97;;;13.90;90.30;;;;;;5084292;28;20060;-74
2021/07/30 20:18:56;;;;;;;11.13;8.80;;;13.80;90.40;;;;;;5088412;28;20047;-74
2021/07/30 20:21:27;;;;;;;15.82;9.35;;;13.90;90.50;;;;;;5087460;28;20051;-74
2021/07/30 20:23:57;;;;;;;10.57;8.68;;;13.90;90.50;;;;;;5085892;28;20424;-74
2021/07/30 20:26:29;;;;;;;14.18;10.40;;;13.90;90.70;;;;;;5086288;28;20506;-74
2021/07/30 20:28:57;;;;;;;16.35;10.45;;;13.90;90.60;;;;;;5089145;28;20040;-74
2021/07/30 20:31:25;;;;;;;15.52;10.52;;;13.90;90.70;;;;;;5085050;28;20414;-74
2021/07/30 20:33:53;;;;;;;13.32;10.45;;;13.90;90.70;;;;;;5083695;28;20494;-74
2021/07/30 20:36:22;;;;;;;11.55;9.68;;;14.00;90.80;;;;;;5085239;28;20218;-74
2021/07/30 20:38:49;;;;;;;15.57;9.85;;;14.00;90.80;;;;;;5087708;28;20044;-74
2021/07/30 20:41:17;;;;;;;12.98;9.88;;;13.90;90.80;;;;;;5089954;28;20035;-74